Tripp, South Dakota
Current Conditions -  °F | °C
As of 1:35 AM on Saturday 29 Nov 2014 (Local Time) from KYKN Reporting Station
Clear Clear  
Wind Chill: 21°   Ceiling: Unl
Heat Index: 27°   Visibility: 5mi
Dew Point: 25°   Wind: 5mph
Humidity: 93%   Direction: 120°ESE
Pressure: 29.5"   Gusts: NA
Location:  43.23°N, 97.97°W
Report Text: KYKN 290735Z AUTO 12004KT 5SM CLR M03/M04 A2950 RMK AO1
Loading
Personal Weather Stations






























Interactive Weather Map New forecast layout! Learn more

10-Day Weather Forecast

Advertisements
Track Severe Weather on mobile